Date,TemperatureHighF,TemperatureAvgF,TemperatureLowF,DewpointHighF,DewpointAvgF,DewpointLowF,HumidityHigh,HumidityAvg,HumidityLow,PressureMaxIn,PressureMinIn,WindSpeedMaxMPH,WindSpeedAvgMPH,GustSpeedMaxMPH,PrecipitationSumIn
2013-3-1,51,40,35,39,35,30,99,82,58,0.00,40.00,8,6,18,0.39
2013-3-2,51,42,34,36,32,29,97,69,54,0.00,40.00,8,4,19,0.14
2013-3-3,34,26,20,33,19,10,98,78,46,0.00,40.00,15,8,28,0.25
2013-3-4,36,27,18,17,12,8,88,55,34,0.00,40.00,11,6,24,0.06
2013-3-5,37,32,27,27,16,7,82,52,41,0.00,40.00,13,7,24,0.01
2013-3-6,42,33,26,30,26,22,95,76,54,0.00,40.00,15,6,33,0.03
2013-3-7,41,30,23,28,22,18,94,75,47,0.00,40.00,9,5,15,0.12
2013-3-8,42,32,27,27,22,18,86,67,43,0.00,40.00,10,6,19,0.02
2013-3-9,42,34,26,29,22,15,90,64,40,0.00,40.00,8,6,17,0.00
2013-3-10,43,35,30,34,21,9,99,62,27,0.00,40.00,12,8,25,0.09
2013-3-11,40,34,32,36,32,29,99,95,72,0.00,40.00,12,6,25,0.15
2013-3-12,48,40,33,39,35,31,99,85,53,0.00,40.00,8,4,16,0.10
2013-3-13,55,47,40,32,28,21,72,50,26,0.00,40.00,9,4,15,0.01
2013-3-14,59,50,41,36,29,23,76,45,33,0.00,40.00,10,5,20,0.00
2013-3-15,49,40,36,36,32,28,92,75,54,0.00,40.00,10,7,20,0.00
2013-3-16,42,34,24,36,31,23,98,87,62,0.00,40.00,18,7,27,0.02
2013-3-17,27,23,20,23,19,17,94,86,71,0.00,40.00,18,9,32,0.02
2013-3-18,34,26,21,26,20,18,92,78,54,0.00,40.00,13,5,26,0.23
2013-3-19,45,35,23,19,13,8,80,44,24,0.00,40.00,15,8,37,0.01
2013-3-20,43,34,25,35,30,12,97,84,30,0.00,40.00,20,12,33,0.08
2013-3-21,26,23,20,24,19,17,94,86,75,0.00,40.00,18,12,32,0.02
2013-3-22,30,22,17,27,19,14,91,89,88,0.00,40.00,15,8,26,0.22
2013-3-23,34,24,17,31,20,14,90,87,81,0.00,40.00,6,4,12,0.21
2013-3-24,44,28,19,23,18,15,86,67,35,0.00,40.00,7,5,11,0.06
2013-3-25,48,36,28,23,18,12,60,49,34,0.00,40.00,6,4,15,0.00
2013-3-26,51,40,33,35,26,19,68,58,47,0.00,40.00,6,4,11,0.00
2013-3-27,50,41,36,39,32,29,85,72,61,0.00,40.00,5,3,11,0.09
2013-3-28,53,46,39,41,38,34,95,74,55,0.00,40.00,7,5,14,0.13
2013-3-29,51,43,38,45,38,33,99,83,58,0.00,40.00,7,3,11,0.06
2013-3-30,61,48,40,35,28,-100,80,52,29,0.00,40.00,5,3,11,0.01
2013-3-31,62,52,45,37,30,18,68,44,30,0.00,40.00,9,5,15,0.00